createdAt,value
2019-04-30T00:03:46.113Z,989.87
2019-04-30T00:08:49.854Z,1064.93
2019-04-30T00:13:55.412Z,1000.17
2019-04-30T00:19:00.947Z,1000.77
2019-04-30T00:24:06.262Z,932.57
2019-04-30T00:29:10.005Z,1034.07
2019-04-30T00:34:15.154Z,974.10
2019-04-30T00:39:18.942Z,1204.33
2019-04-30T00:44:24.793Z,1071.83
2019-04-30T00:49:28.155Z,1008.00
2019-04-30T00:54:32.186Z,1416.13
2019-04-30T00:59:39.715Z,1134.53
2019-04-30T01:04:50.151Z,1076.77
2019-04-30T01:09:55.295Z,904.87
2019-04-30T01:15:01.691Z,1033.93
2019-04-30T01:20:06.979Z,983.40
2019-04-30T01:25:13.381Z,949.57
2019-04-30T01:30:18.700Z,1042.30
2019-04-30T01:35:23.800Z,1053.03
2019-04-30T01:40:28.560Z,889.67
2019-04-30T01:45:32.800Z,1047.13
2019-04-30T01:50:41.815Z,994.73
2019-04-30T01:56:09.201Z,1021.50
2019-04-30T02:01:19.011Z,1043.10
2019-04-30T02:06:24.253Z,969.60
2019-04-30T02:11:28.871Z,1133.17
2019-04-30T02:16:33.401Z,1113.40
2019-04-30T02:21:38.567Z,1148.73
2019-04-30T02:26:42.462Z,994.70
2019-04-30T02:31:46.163Z,1032.47
2019-04-30T02:37:00.040Z,1108.27
2019-04-30T02:42:04.534Z,980.00
2019-04-30T02:47:10.176Z,1036.07
2019-04-30T02:52:19.408Z,952.93
2019-04-30T02:57:23.444Z,1044.17
2019-04-30T03:02:29.220Z,1032.63
2019-04-30T03:07:33.053Z,1142.80
2019-04-30T03:12:36.975Z,1116.77
2019-04-30T03:17:53.697Z,1097.83
2019-04-30T03:23:02.060Z,1215.20
2019-04-30T03:28:02.863Z,1400.77
2019-04-30T03:33:06.589Z,1359.53
2019-04-30T03:38:10.296Z,1554.00
2019-04-30T03:43:14.208Z,1533.00
2019-04-30T03:48:19.993Z,1464.00
2019-04-30T03:53:23.651Z,1464.03
2019-04-30T03:58:29.290Z,1650.67
2019-04-30T04:03:35.703Z,1520.30
2019-04-30T04:09:01.759Z,1727.57
2019-04-30T04:14:05.479Z,1999.90
2019-04-30T04:19:09.624Z,1719.07
2019-04-30T04:24:13.539Z,1953.57
2019-04-30T04:29:19.509Z,1880.73
2019-04-30T04:34:22.727Z,1876.07
2019-04-30T04:39:26.450Z,1752.20
2019-04-30T04:44:30.127Z,1603.33
2019-04-30T04:49:33.892Z,1901.83
2019-04-30T04:54:40.017Z,1884.30
2019-04-30T04:59:43.544Z,1999.90
2019-04-30T05:04:49.181Z,1999.90
2019-04-30T05:09:52.885Z,1751.43
2019-04-30T05:14:56.606Z,1999.90
2019-04-30T05:20:00.610Z,1999.90
2019-04-30T05:25:04.545Z,1999.90
2019-04-30T05:30:12.095Z,1998.50
2019-04-30T05:35:14.963Z,1832.07
2019-04-30T05:40:19.047Z,1388.90
2019-04-30T05:45:22.935Z,1999.90
2019-04-30T05:50:26.704Z,1999.90
2019-04-30T05:55:30.498Z,1999.90
2019-04-30T06:00:34.710Z,1999.90
2019-04-30T06:05:39.471Z,1999.90
2019-04-30T06:10:54.425Z,1999.90
2019-04-30T06:16:14.073Z,1688.20
2019-04-30T06:21:21.314Z,1999.90
2019-04-30T06:26:24.093Z,1999.90
2019-04-30T06:31:34.815Z,1999.90
2019-04-30T06:36:33.438Z,1999.90
2019-04-30T06:41:37.248Z,1999.90
2019-04-30T06:46:41.494Z,1999.90
2019-04-30T06:51:45.214Z,1999.90
2019-04-30T06:56:48.951Z,1999.90
2019-04-30T07:01:53.093Z,1526.93
2019-04-30T07:06:56.819Z,1188.57
2019-04-30T07:12:29.914Z,647.40
2019-04-30T07:17:31.995Z,460.93
2019-04-30T07:22:40.901Z,1558.70
2019-04-30T07:27:41.222Z,146.27
2019-04-30T07:32:45.016Z,621.43
2019-04-30T07:37:49.760Z,208.57
2019-04-30T07:42:53.976Z,278.30
2019-04-30T07:47:59.383Z,688.87
2019-04-30T07:53:06.408Z,578.27
2019-04-30T07:58:09.173Z,553.10
2019-04-30T08:03:44.426Z,170.23
2019-04-30T08:08:50.695Z,468.90
2019-04-30T08:13:53.887Z,109.47
2019-04-30T08:18:59.170Z,282.50
2019-04-30T08:24:02.957Z,234.07
2019-04-30T08:29:06.720Z,754.60
2019-04-30T08:34:11.124Z,122.63
2019-04-30T08:39:14.992Z,273.90
2019-04-30T08:44:20.799Z,225.80
2019-04-30T08:49:24.554Z,1032.53
2019-04-30T08:54:29.533Z,146.67
2019-04-30T08:59:33.390Z,351.97
2019-04-30T09:04:38.789Z,189.10
2019-04-30T09:09:44.594Z,110.70
2019-04-30T09:14:49.076Z,344.60
2019-04-30T09:19:53.487Z,119.53
2019-04-30T09:24:59.069Z,168.10
2019-04-30T09:30:02.630Z,131.70
2019-04-30T09:35:06.938Z,485.80
2019-04-30T09:40:17.904Z,191.40
2019-04-30T09:45:18.630Z,141.67
2019-04-30T09:50:22.481Z,189.70
2019-04-30T09:55:26.154Z,148.57
2019-04-30T10:00:29.954Z,173.70
2019-04-30T10:05:33.672Z,128.20
2019-04-30T10:10:44.715Z,587.70
2019-04-30T10:15:58.440Z,263.50
2019-04-30T10:21:01.972Z,229.20
2019-04-30T10:26:05.714Z,566.53
2019-04-30T10:31:09.489Z,138.57
2019-04-30T10:36:13.226Z,233.00
2019-04-30T10:41:18.788Z,209.00
2019-04-30T10:46:22.862Z,137.53
2019-04-30T10:51:28.666Z,158.80
2019-04-30T10:56:32.461Z,183.03
2019-04-30T11:01:36.177Z,133.00
2019-04-30T11:06:40.904Z,160.93
2019-04-30T11:11:44.683Z,132.40
2019-04-30T11:16:51.205Z,247.50
2019-04-30T11:21:54.014Z,267.77
2019-04-30T11:26:59.784Z,203.30
2019-04-30T11:32:19.796Z,135.47
2019-04-30T11:37:23.771Z,168.33
2019-04-30T11:42:27.454Z,123.67
2019-04-30T11:47:33.642Z,155.77
2019-04-30T11:52:37.346Z,156.20
2019-04-30T11:57:41.046Z,127.50
2019-04-30T12:02:44.817Z,134.67
2019-04-30T12:07:57.203Z,132.50
2019-04-30T12:13:00.967Z,146.53
2019-04-30T12:18:04.763Z,202.63
2019-04-30T12:23:11.761Z,155.60
2019-04-30T12:28:14.191Z,201.07
2019-04-30T12:33:19.166Z,208.13
2019-04-30T12:38:23.050Z,243.50
2019-04-30T12:43:26.862Z,167.43
2019-04-30T12:48:42.538Z,266.80
2019-04-30T12:54:05.451Z,437.83
2019-04-30T12:59:09.158Z,133.70
2019-04-30T13:04:12.923Z,284.17
2019-04-30T13:09:19.712Z,124.47
2019-04-30T13:14:23.623Z,191.60
2019-04-30T13:19:27.954Z,167.23
2019-04-30T13:24:31.834Z,308.87
2019-04-30T13:29:42.644Z,237.17
2019-04-30T13:34:51.167Z,179.47
2019-04-30T13:40:09.717Z,229.27
2019-04-30T13:45:14.174Z,182.43
2019-04-30T13:50:21.448Z,251.67
2019-04-30T13:55:24.701Z,179.10
2019-04-30T14:00:29.993Z,167.67
2019-04-30T14:05:34.158Z,134.90
2019-04-30T14:10:41.225Z,161.50
2019-04-30T14:15:47.770Z,173.30
2019-04-30T14:20:52.615Z,280.40
2019-04-30T14:26:00.929Z,164.27
2019-04-30T14:31:04.384Z,164.90
2019-04-30T14:36:09.193Z,159.97
2019-04-30T14:41:14.681Z,140.93
2019-04-30T14:46:41.078Z,192.93
2019-04-30T14:51:46.424Z,271.20
2019-04-30T14:57:11.578Z,145.43
2019-04-30T15:02:24.315Z,120.47
2019-04-30T15:07:29.551Z,165.47
2019-04-30T15:12:33.654Z,180.37
2019-04-30T15:17:39.218Z,153.93
2019-04-30T15:22:52.354Z,156.43
2019-04-30T15:27:56.109Z,152.17
2019-04-30T15:33:09.280Z,182.57
2019-04-30T15:38:13.888Z,151.50
2019-04-30T15:43:19.017Z,273.57
2019-04-30T15:48:24.824Z,157.40
2019-04-30T15:53:28.987Z,141.77
2019-04-30T15:58:34.415Z,143.27
2019-04-30T16:03:40.367Z,144.93
2019-04-30T16:08:50.223Z,144.27
2019-04-30T16:14:18.912Z,205.07
2019-04-30T16:19:22.770Z,149.73
2019-04-30T16:24:28.667Z,143.17
2019-04-30T16:29:32.213Z,142.57
2019-04-30T16:34:36.004Z,163.07
2019-04-30T16:39:39.814Z,192.17
2019-04-30T16:44:43.554Z,176.77
2019-04-30T16:49:49.251Z,161.70
2019-04-30T16:54:52.692Z,193.57
2019-04-30T16:59:56.366Z,145.63
2019-04-30T17:05:19.817Z,148.93
2019-04-30T17:10:33.546Z,140.67
2019-04-30T17:15:38.198Z,150.87
2019-04-30T17:20:41.934Z,141.47
2019-04-30T17:25:45.626Z,133.57
2019-04-30T17:30:49.340Z,132.70
2019-04-30T17:35:53.080Z,131.43
2019-04-30T17:40:56.801Z,139.67
2019-04-30T17:46:00.555Z,141.27
2019-04-30T17:51:04.255Z,138.90
2019-04-30T17:56:08.267Z,129.73
2019-04-30T18:01:12.075Z,144.57
2019-04-30T18:06:15.921Z,131.90
2019-04-30T18:11:20.068Z,122.77
2019-04-30T18:16:23.987Z,133.77
2019-04-30T18:21:38.569Z,132.37
2019-04-30T18:26:57.522Z,140.30
2019-04-30T18:32:01.346Z,122.27
2019-04-30T18:37:05.248Z,120.30
2019-04-30T18:42:10.785Z,110.00
2019-04-30T18:47:14.481Z,105.80
2019-04-30T18:52:18.810Z,106.07
2019-04-30T18:57:22.884Z,103.70
2019-04-30T19:02:26.631Z,1097.77
2019-04-30T19:07:38.953Z,942.23
2019-04-30T19:13:08.949Z,265.07
2019-04-30T19:18:27.630Z,1999.90
2019-04-30T19:23:31.753Z,1941.77
2019-04-30T19:28:35.652Z,1999.90
2019-04-30T19:33:39.936Z,1612.47
2019-04-30T19:38:44.091Z,1999.90
2019-04-30T19:43:49.991Z,1999.90
2019-04-30T19:48:53.611Z,1143.00
2019-04-30T19:53:59.806Z,1996.43
2019-04-30T19:59:05.634Z,1268.20
2019-04-30T20:04:09.854Z,1999.90
2019-04-30T20:09:14.318Z,1721.70
2019-04-30T20:14:18.768Z,1999.90
2019-04-30T20:19:22.634Z,1999.90
2019-04-30T20:24:26.638Z,1561.53
2019-04-30T20:29:30.427Z,1348.67
2019-04-30T20:34:34.477Z,1106.67
2019-04-30T20:39:50.854Z,1300.57
2019-04-30T20:44:54.834Z,1999.90
2019-04-30T20:49:58.644Z,1999.90
2019-04-30T20:55:02.901Z,1999.90
2019-04-30T21:00:07.272Z,1999.90
2019-04-30T21:05:11.420Z,1999.90
2019-04-30T21:10:15.207Z,1999.90
2019-04-30T21:15:19.744Z,1999.90
2019-04-30T21:20:23.705Z,1999.90
2019-04-30T21:25:29.234Z,832.57
2019-04-30T21:30:33.183Z,1999.90
2019-04-30T21:35:52.501Z,1999.90
2019-04-30T21:41:00.895Z,1999.90
2019-04-30T21:46:02.403Z,1999.90
2019-04-30T21:51:06.426Z,1999.90
2019-04-30T21:56:12.370Z,1364.63
2019-04-30T22:01:19.931Z,1958.77
2019-04-30T22:06:23.907Z,1999.90
2019-04-30T22:11:29.623Z,1999.90
2019-04-30T22:16:33.946Z,1999.90
2019-04-30T22:21:39.642Z,1999.90
2019-04-30T22:26:43.625Z,1245.60
2019-04-30T22:31:49.349Z,1360.10
2019-04-30T22:36:53.221Z,1999.90
2019-04-30T22:42:39.516Z,1059.60
2019-04-30T22:47:43.001Z,1078.40
2019-04-30T22:52:47.268Z,1285.70
2019-04-30T22:57:51.086Z,1813.30
2019-04-30T23:03:07.735Z,1772.47
2019-04-30T23:08:11.738Z,1670.73
2019-04-30T23:13:15.817Z,1076.10
2019-04-30T23:18:19.639Z,1184.07
2019-04-30T23:23:23.693Z,1999.90
2019-04-30T23:28:27.521Z,1999.90
2019-04-30T23:33:31.502Z,1098.53
2019-04-30T23:38:35.302Z,1044.90
2019-04-30T23:43:39.285Z,996.43
2019-04-30T23:48:43.182Z,982.40
2019-04-30T23:53:47.086Z,1007.50
2019-04-30T23:58:51.097Z,1063.47
